Olathe, KS

4:33 PM CDT on August 27, 2015 (GMT -0500)
Northgate Estates | | Change Station
CLOSE
Current Station
Personal Weather Station
Location: Olathe, KS
Elevation: 970 ft
Nearby Weather Stations

Elev 970 ft 38.89 °N, 94.82 °W | Updated 2 seconds ago

Rain
Rain
70.3 °F
Feels Like 70.3 °F
N
6.0
Wind Variable Wind from SE
Gusts 8.0 mph

Today
High -- | Low -- °F
--% Chance of Precip.
Yesterday
High -- | Low -- °F
Precip. -- in
6:43 AM 7:57 PM
Waxing Gibbous, 95% visible
Pressure 30.05 in
Visibility 10.0 miles
Clouds Few 3200 ft
Scattered Clouds 8000 ft
Mostly Cloudy 10000 ft
Dew Point 68 °F
Humidity 94%
Rainfall 0.30 in
Snow Depth Not available.
UV 1.6 out of 12
Pollen 9.00 out of 12
Air Quality Not available.
Flu Activity Not available.
SPECI KOJC 272117Z 18009KT 10SM VCTS -RA FEW032 SCT080 BKN100 19/19 A3005 RMK AO2 RAB2057 P0002 T01940189
Pressure 30.05 in
Visibility 10.0 miles
Clouds Few 3200 ft
Scattered Clouds 8000 ft
Mostly Cloudy 10000 ft
Dew Point 68 °F
Humidity 94%
Rainfall 0.30 in
Snow Depth Not available.
UV 1.6 out of 12
Pollen 9.00 out of 12
Air Quality Not available.
Flu Activity Not available.
SPECI KOJC 272117Z 18009KT 10SM VCTS -RA FEW032 SCT080 BKN100 19/19 A3005 RMK AO2 RAB2057 P0002 T01940189

10-Day Weather Forecast

×

Almanac

Astronomy

Aug. 27, 2015 Rise Set
Actual Time
Civil Twilight
Nautical Twilight
Astronomical Twilight
Moon
Length of Visible Light
Length of Day
Tomorrow will be .
, % of the Moon is Illuminated

Today's Extremes

State Highs State Lows

Community

WunderPhotos

Upload Photos

1,850,236 photos uploaded!

WunderBlogs® & News

Nearby

Air Quality

  Air Quality AQ Index Pollutant
Not available.

Snow Depth

Station Depth Elevation

Earthquake Activity

City Distance Mag. Time & Date
Minimum magnitude displayed is 2.5.

Coastal Water Temperatures

Place Temperature

Stations

Nearby Weather Stations

Station Location Temp. Windchill Dew Point Humidity Wind Precip. Elev Updated Type